sensor_id;sensor_type;location;lat;lon;timestamp;pressure;altitude;pressure_sealevel;temperature
64296;BMP280;51082;38.236;15.432;2023-12-28T00:00:59;102765.66;;;18.82
64296;BMP280;51082;38.236;15.432;2023-12-28T00:02:02;102772.59;;;18.83
64296;BMP280;51082;38.236;15.432;2023-12-28T00:03:04;102768.28;;;18.82
64296;BMP280;51082;38.236;15.432;2023-12-28T00:04:06;102771.75;;;18.82
64296;BMP280;51082;38.236;15.432;2023-12-28T00:05:08;102771.56;;;18.84
64296;BMP280;51082;38.236;15.432;2023-12-28T00:06:10;102778.47;;;18.85
64296;BMP280;51082;38.236;15.432;2023-12-28T00:07:12;102781.09;;;18.85
64296;BMP280;51082;38.236;15.432;2023-12-28T00:08:14;102781.09;;;18.85
64296;BMP280;51082;38.236;15.432;2023-12-28T00:09:16;102783.16;;;18.83
64296;BMP280;51082;38.236;15.432;2023-12-28T00:10:19;102792.47;;;18.85
64296;BMP280;51082;38.236;15.432;2023-12-28T00:11:20;102791.66;;;18.85
64296;BMP280;51082;38.236;15.432;2023-12-28T00:12:24;102787.19;;;18.85
64296;BMP280;51082;38.236;15.432;2023-12-28T00:13:25;102784.34;;;18.87
64296;BMP280;51082;38.236;15.432;2023-12-28T00:14:28;102788.81;;;18.86
64296;BMP280;51082;38.236;15.432;2023-12-28T00:15:31;102788.00;;;18.86
64296;BMP280;51082;38.236;15.432;2023-12-28T00:16:33;102790.03;;;18.84
64296;BMP280;51082;38.236;15.432;2023-12-28T00:17:35;102784.13;;;18.82
64296;BMP280;51082;38.236;15.432;2023-12-28T00:18:37;102792.03;;;18.82
64296;BMP280;51082;38.236;15.432;2023-12-28T00:19:39;102789.41;;;18.82
64296;BMP280;51082;38.236;15.432;2023-12-28T00:20:40;102785.78;;;18.83
64296;BMP280;51082;38.236;15.432;2023-12-28T00:21:43;102788.78;;;18.80
64296;BMP280;51082;38.236;15.432;2023-12-28T00:22:45;102790.81;;;18.77
64296;BMP280;51082;38.236;15.432;2023-12-28T00:23:47;102787.97;;;18.79
64296;BMP280;51082;38.236;15.432;2023-12-28T00:24:49;102792.25;;;18.80
64296;BMP280;51082;38.236;15.432;2023-12-28T00:25:51;102800.78;;;18.82
64296;BMP280;51082;38.236;15.432;2023-12-28T00:26:53;102798.13;;;18.82
64296;BMP280;51082;38.236;15.432;2023-12-28T00:27:55;102793.44;;;18.77
64296;BMP280;51082;38.236;15.432;2023-12-28T00:28:57;102795.47;;;18.75
64296;BMP280;51082;38.236;15.432;2023-12-28T00:29:59;102794.44;;;18.76
64296;BMP280;51082;38.236;15.432;2023-12-28T00:31:02;102792.81;;;18.75
64296;BMP280;51082;38.236;15.432;2023-12-28T00:32:05;102793.63;;;18.76
64296;BMP280;51082;38.236;15.432;2023-12-28T00:33:07;102791.81;;;18.76
64296;BMP280;51082;38.236;15.432;2023-12-28T00:34:08;102796.94;;;18.78
64296;BMP280;51082;38.236;15.432;2023-12-28T00:35:11;102794.06;;;18.80
64296;BMP280;51082;38.236;15.432;2023-12-28T00:36:12;102795.88;;;18.79
64296;BMP280;51082;38.236;15.432;2023-12-28T00:37:14;102792.44;;;18.79
64296;BMP280;51082;38.236;15.432;2023-12-28T00:38:16;102794.44;;;18.76
64296;BMP280;51082;38.236;15.432;2023-12-28T00:39:18;102789.00;;;18.78
64296;BMP280;51082;38.236;15.432;2023-12-28T00:40:20;102799.72;;;18.76
64296;BMP280;51082;38.236;15.432;2023-12-28T00:41:23;102787.97;;;18.79
64296;BMP280;51082;38.236;15.432;2023-12-28T00:42:25;102791.22;;;18.81
64296;BMP280;51082;38.236;15.432;2023-12-28T00:43:27;102789.59;;;18.80
64296;BMP280;51082;38.236;15.432;2023-12-28T00:44:29;102795.69;;;18.81
64296;BMP280;51082;38.236;15.432;2023-12-28T00:45:31;102797.31;;;18.82
64296;BMP280;51082;38.236;15.432;2023-12-28T00:46:34;102796.72;;;18.80
64296;BMP280;51082;38.236;15.432;2023-12-28T00:47:36;102796.72;;;18.80
64296;BMP280;51082;38.236;15.432;2023-12-28T00:48:38;102800.97;;;18.81
64296;BMP280;51082;38.236;15.432;2023-12-28T00:49:40;102800.97;;;18.81
64296;BMP280;51082;38.236;15.432;2023-12-28T00:50:42;102807.88;;;18.82
64296;BMP280;51082;38.236;15.432;2023-12-28T00:51:44;102810.91;;;18.79
64296;BMP280;51082;38.236;15.432;2023-12-28T00:52:46;102797.09;;;18.76
64296;BMP280;51082;38.236;15.432;2023-12-28T00:53:48;102810.28;;;18.76
64296;BMP280;51082;38.236;15.432;2023-12-28T00:54:50;102809.47;;;18.76
64296;BMP280;51082;38.236;15.432;2023-12-28T00:55:52;102815.75;;;18.75
64296;BMP280;51082;38.236;15.432;2023-12-28T00:56:54;102811.31;;;18.75
64296;BMP280;51082;38.236;15.432;2023-12-28T00:57:56;102810.28;;;18.76
64296;BMP280;51082;38.236;15.432;2023-12-28T00:58:58;102817.19;;;18.77
64296;BMP280;51082;38.236;15.432;2023-12-28T01:00:00;102813.13;;;18.75
64296;BMP280;51082;38.236;15.432;2023-12-28T01:01:03;102815.56;;;18.76
64296;BMP280;51082;38.236;15.432;2023-12-28T01:02:06;102816.56;;;18.75
64296;BMP280;51082;38.236;15.432;2023-12-28T01:03:08;102811.31;;;18.75
64296;BMP280;51082;38.236;15.432;2023-12-28T01:04:10;102816.81;;;18.74
64296;BMP280;51082;38.236;15.432;2023-12-28T01:05:12;102808.66;;;18.75
64296;BMP280;51082;38.236;15.432;2023-12-28T01:06:14;102819.22;;;18.75
64296;BMP280;51082;38.236;15.432;2023-12-28T01:07:16;102820.84;;;18.76
64296;BMP280;51082;38.236;15.432;2023-12-28T01:08:19;102814.75;;;18.76
64296;BMP280;51082;38.236;15.432;2023-12-28T01:09:20;102820.84;;;18.76
64296;BMP280;51082;38.236;15.432;2023-12-28T01:10:23;102822.47;;;18.77
64296;BMP280;51082;38.236;15.432;2023-12-28T01:11:24;102824.09;;;18.79
64296;BMP280;51082;38.236;15.432;2023-12-28T01:12:27;102817.19;;;18.77
64296;BMP280;51082;38.236;15.432;2023-12-28T01:13:28;102823.47;;;18.76
64296;BMP280;51082;38.236;15.432;2023-12-28T01:14:31;102821.22;;;18.73
64296;BMP280;51082;38.236;15.432;2023-12-28T01:15:33;102814.94;;;18.74
64296;BMP280;51082;38.236;15.432;2023-12-28T01:16:35;102824.50;;;18.75
64296;BMP280;51082;38.236;15.432;2023-12-28T01:17:38;102814.31;;;18.72
64296;BMP280;51082;38.236;15.432;2023-12-28T01:18:41;102819.59;;;18.72
64296;BMP280;51082;38.236;15.432;2023-12-28T01:19:42;102817.16;;;18.71
64296;BMP280;51082;38.236;15.432;2023-12-28T01:20:45;102817.97;;;18.71
64296;BMP280;51082;38.236;15.432;2023-12-28T01:21:46;102816.34;;;18.70
64296;BMP280;51082;38.236;15.432;2023-12-28T01:22:49;102813.69;;;18.70
64296;BMP280;51082;38.236;15.432;2023-12-28T01:23:51;102819.59;;;18.72
64296;BMP280;51082;38.236;15.432;2023-12-28T01:24:53;102816.97;;;18.72
64296;BMP280;51082;38.236;15.432;2023-12-28T01:25:55;102818.59;;;18.73
64296;BMP280;51082;38.236;15.432;2023-12-28T01:26:58;102823.69;;;18.75
64296;BMP280;51082;38.236;15.432;2023-12-28T01:27:59;102819.22;;;18.75
64296;BMP280;51082;38.236;15.432;2023-12-28T01:29:02;102824.50;;;18.75
64296;BMP280;51082;38.236;15.432;2023-12-28T01:30:05;102824.50;;;18.75
64296;BMP280;51082;38.236;15.432;2023-12-28T01:31:08;102822.06;;;18.74
64296;BMP280;51082;38.236;15.432;2023-12-28T01:32:09;102818.78;;;18.72
64296;BMP280;51082;38.236;15.432;2023-12-28T01:33:13;102813.31;;;18.73
64296;BMP280;51082;38.236;15.432;2023-12-28T01:34:15;102813.50;;;18.72
64296;BMP280;51082;38.236;15.432;2023-12-28T01:35:16;102816.16;;;18.72
64296;BMP280;51082;38.236;15.432;2023-12-28T01:36:20;102817.78;;;18.73
64296;BMP280;51082;38.236;15.432;2023-12-28T01:37:21;102820.41;;;18.73
64296;BMP280;51082;38.236;15.432;2023-12-28T01:38:24;102822.84;;;18.74
64296;BMP280;51082;38.236;15.432;2023-12-28T01:39:25;102824.72;;;18.74
64296;BMP280;51082;38.236;15.432;2023-12-28T01:40:28;102819.59;;;18.72
64296;BMP280;51082;38.236;15.432;2023-12-28T01:41:29;102818.41;;;18.75
64296;BMP280;51082;38.236;15.432;2023-12-28T01:42:32;102811.09;;;18.77
64296;BMP280;51082;38.236;15.432;2023-12-28T01:43:33;102812.94;;;18.76
64296;BMP280;51082;38.236;15.432;2023-12-28T01:44:36;102817.59;;;18.74
64296;BMP280;51082;38.236;15.432;2023-12-28T01:45:37;102814.31;;;18.72
64296;BMP280;51082;38.236;15.432;2023-12-28T01:46:40;102814.50;;;18.71
64296;BMP280;51082;38.236;15.432;2023-12-28T01:47:42;102818.16;;;18.70
64296;BMP280;51082;38.236;15.432;2023-12-28T01:48:49;102810.06;;;18.71
64296;BMP280;51082;38.236;15.432;2023-12-28T01:49:51;102817.97;;;18.71
64296;BMP280;51082;38.236;15.432;2023-12-28T01:50:54;102817.16;;;18.71
64296;BMP280;51082;38.236;15.432;2023-12-28T01:51:55;102817.38;;;18.69
64296;BMP280;51082;38.236;15.432;2023-12-28T01:53:00;102820.03;;;18.69
64296;BMP280;51082;38.236;15.432;2023-12-28T01:54:02;102809.63;;;18.68
64296;BMP280;51082;38.236;15.432;2023-12-28T01:55:05;102821.00;;;18.68
64296;BMP280;51082;38.236;15.432;2023-12-28T01:56:08;102812.09;;;18.69
64296;BMP280;51082;38.236;15.432;2023-12-28T01:57:10;102820.03;;;18.69
64296;BMP280;51082;38.236;15.432;2023-12-28T01:58:14;102814.91;;;18.68
64296;BMP280;51082;38.236;15.432;2023-12-28T01:59:15;102817.16;;;18.71
64296;BMP280;51082;38.236;15.432;2023-12-28T02:00:20;102817.97;;;18.71
64296;BMP280;51082;38.236;15.432;2023-12-28T02:01:22;102821.44;;;18.72
64296;BMP280;51082;38.236;15.432;2023-12-28T02:02:24;102812.69;;;18.71
64296;BMP280;51082;38.236;15.432;2023-12-28T02:03:27;102811.88;;;18.71
64296;BMP280;51082;38.236;15.432;2023-12-28T02:04:30;102813.69;;;18.70
64296;BMP280;51082;38.236;15.432;2023-12-28T02:05:33;102820.63;;;18.71
64296;BMP280;51082;38.236;15.432;2023-12-28T02:06:35;102818.34;;;18.68
64296;BMP280;51082;38.236;15.432;2023-12-28T02:07:37;102806.81;;;18.69
64296;BMP280;51082;38.236;15.432;2023-12-28T02:08:39;102804.53;;;18.66
64296;BMP280;51082;38.236;15.432;2023-12-28T02:09:40;102814.25;;;18.59
64296;BMP280;51082;38.236;15.432;2023-12-28T02:10:43;102810.78;;;18.59
64296;BMP280;51082;38.236;15.432;2023-12-28T02:11:44;102810.97;;;18.57
64296;BMP280;51082;38.236;15.432;2023-12-28T02:12:46;102810.22;;;18.63
64296;BMP280;51082;38.236;15.432;2023-12-28T02:13:48;102809.41;;;18.63
64296;BMP280;51082;38.236;15.432;2023-12-28T02:14:50;102811.84;;;18.64
64296;BMP280;51082;38.236;15.432;2023-12-28T02:15:56;102803.28;;;18.62
64296;BMP280;51082;38.236;15.432;2023-12-28T02:17:03;102804.94;;;18.63
64296;BMP280;51082;38.236;15.432;2023-12-28T02:18:11;102806.94;;;18.61
64296;BMP280;51082;38.236;15.432;2023-12-28T02:19:19;102813.47;;;18.65
64296;BMP280;51082;38.236;15.432;2023-12-28T02:20:29;102811.41;;;18.61
64296;BMP280;51082;38.236;15.432;2023-12-28T02:21:31;102809.59;;;18.61
64296;BMP280;51082;38.236;15.432;2023-12-28T02:22:34;102808.19;;;18.65
64296;BMP280;51082;38.236;15.432;2023-12-28T02:23:36;102806.38;;;18.66
64296;BMP280;51082;38.236;15.432;2023-12-28T02:26:17;102800.28;;;18.65
64296;BMP280;51082;38.236;15.432;2023-12-28T02:27:18;102807.81;;;18.68
64296;BMP280;51082;38.236;15.432;2023-12-28T02:28:20;102800.09;;;18.67
64296;BMP280;51082;38.236;15.432;2023-12-28T02:29:22;102802.91;;;18.65
64296;BMP280;51082;38.236;15.432;2023-12-28T02:30:24;102807.38;;;18.65
64296;BMP280;51082;38.236;15.432;2023-12-28T02:31:30;102808.19;;;18.65
64296;BMP280;51082;38.236;15.432;2023-12-28T02:32:44;102803.28;;;18.62
64296;BMP280;51082;38.236;15.432;2023-12-28T02:33:50;102799.66;;;18.63
64296;BMP280;51082;38.236;15.432;2023-12-28T02:35:06;102798.03;;;18.62
64296;BMP280;51082;38.236;15.432;2023-12-28T02:36:11;102793.56;;;18.63
64296;BMP280;51082;38.236;15.432;2023-12-28T02:37:16;102789.25;;;18.55
64296;BMP280;51082;38.236;15.432;2023-12-28T02:38:19;102793.09;;;18.53
64296;BMP280;51082;38.236;15.432;2023-12-28T02:39:22;102793.53;;;18.56
64296;BMP280;51082;38.236;15.432;2023-12-28T02:40:26;102792.69;;;18.56
64296;BMP280;51082;38.236;15.432;2023-12-28T02:41:31;102789.69;;;18.59
64296;BMP280;51082;38.236;15.432;2023-12-28T02:42:33;102782.56;;;18.59
64296;BMP280;51082;38.236;15.432;2023-12-28T02:43:35;102787.84;;;18.59
64296;BMP280;51082;38.236;15.432;2023-12-28T02:44:37;102789.69;;;18.59
64296;BMP280;51082;38.236;15.432;2023-12-28T02:45:39;102788.25;;;18.56
64296;BMP280;51082;38.236;15.432;2023-12-28T02:46:41;102785.41;;;18.58
64296;BMP280;51082;38.236;15.432;2023-12-28T02:47:43;102786.22;;;18.58
64296;BMP280;51082;38.236;15.432;2023-12-28T02:48:46;102786.00;;;18.53
64296;BMP280;51082;38.236;15.432;2023-12-28T02:49:47;102789.44;;;18.54
64296;BMP280;51082;38.236;15.432;2023-12-28T02:50:50;102783.16;;;18.55
64296;BMP280;51082;38.236;15.432;2023-12-28T02:51:51;102779.72;;;18.54
64296;BMP280;51082;38.236;15.432;2023-12-28T02:52:54;102784.97;;;18.54
64296;BMP280;51082;38.236;15.432;2023-12-28T02:53:55;102792.28;;;18.52
64296;BMP280;51082;38.236;15.432;2023-12-28T02:54:58;102781.72;;;18.52
64296;BMP280;51082;38.236;15.432;2023-12-28T02:55:59;102780.53;;;18.55
64296;BMP280;51082;38.236;15.432;2023-12-28T02:57:03;102779.72;;;18.54
64296;BMP280;51082;38.236;15.432;2023-12-28T02:58:05;102772.78;;;18.53
64296;BMP280;51082;38.236;15.432;2023-12-28T02:59:07;102772.38;;;18.50
64296;BMP280;51082;38.236;15.432;2023-12-28T03:00:10;102777.44;;;18.51
64296;BMP280;51082;38.236;15.432;2023-12-28T03:01:12;102778.88;;;18.54
64296;BMP280;51082;38.236;15.432;2023-12-28T03:02:14;102779.09;;;18.52
64296;BMP280;51082;38.236;15.432;2023-12-28T03:03:16;102778.50;;;18.57
64296;BMP280;51082;38.236;15.432;2023-12-28T03:04:19;102775.06;;;18.56
64296;BMP280;51082;38.236;15.432;2023-12-28T03:05:21;102781.34;;;18.55
64296;BMP280;51082;38.236;15.432;2023-12-28T03:06:23;102775.06;;;18.56
64296;BMP280;51082;38.236;15.432;2023-12-28T03:07:25;102774.63;;;18.53
64296;BMP280;51082;38.236;15.432;2023-12-28T03:08:27;102780.09;;;18.51
64296;BMP280;51082;38.236;15.432;2023-12-28T03:09:29;102789.25;;;18.55
64296;BMP280;51082;38.236;15.432;2023-12-28T03:10:31;102777.25;;;18.53
64296;BMP280;51082;38.236;15.432;2023-12-28T03:11:33;102775.44;;;18.53
64296;BMP280;51082;38.236;15.432;2023-12-28T03:12:37;102779.50;;;18.56
64296;BMP280;51082;38.236;15.432;2023-12-28T03:13:39;102788.63;;;18.53
64296;BMP280;51082;38.236;15.432;2023-12-28T03:14:41;102776.44;;;18.52
64296;BMP280;51082;38.236;15.432;2023-12-28T03:15:42;102778.06;;;18.53
64296;BMP280;51082;38.236;15.432;2023-12-28T03:16:45;102777.25;;;18.53
64296;BMP280;51082;38.236;15.432;2023-12-28T03:17:46;102777.44;;;18.51
64296;BMP280;51082;38.236;15.432;2023-12-28T03:18:48;102777.88;;;18.55
64296;BMP280;51082;38.236;15.432;2023-12-28T03:19:50;102778.50;;;18.57
64296;BMP280;51082;38.236;15.432;2023-12-28T03:20:53;102776.88;;;18.56
64296;BMP280;51082;38.236;15.432;2023-12-28T03:21:54;102779.50;;;18.56
64296;BMP280;51082;38.236;15.432;2023-12-28T03:22:56;102782.16;;;18.56
64296;BMP280;51082;38.236;15.432;2023-12-28T03:23:58;102777.44;;;18.51
64296;BMP280;51082;38.236;15.432;2023-12-28T03:25:01;102781.34;;;18.55
64296;BMP280;51082;38.236;15.432;2023-12-28T03:26:02;102784.34;;;18.52
64296;BMP280;51082;38.236;15.432;2023-12-28T03:27:05;102780.31;;;18.56
64296;BMP280;51082;38.236;15.432;2023-12-28T03:28:08;102780.09;;;18.51
64296;BMP280;51082;38.236;15.432;2023-12-28T03:29:10;102779.91;;;18.53
64296;BMP280;51082;38.236;15.432;2023-12-28T03:30:12;102782.16;;;18.56
64296;BMP280;51082;38.236;15.432;2023-12-28T03:31:13;102784.97;;;18.54
64296;BMP280;51082;38.236;15.432;2023-12-28T03:32:16;102782.34;;;18.54
64296;BMP280;51082;38.236;15.432;2023-12-28T03:33:17;102781.72;;;18.52
64296;BMP280;51082;38.236;15.432;2023-12-28T03:34:20;102786.00;;;18.53
64296;BMP280;51082;38.236;15.432;2023-12-28T03:35:23;102786.63;;;18.55
64296;BMP280;51082;38.236;15.432;2023-12-28T03:36:25;102783.34;;;18.53
64296;BMP280;51082;38.236;15.432;2023-12-28T03:37:26;102778.50;;;18.57
64296;BMP280;51082;38.236;15.432;2023-12-28T03:38:29;102775.66;;;18.58
64296;BMP280;51082;38.236;15.432;2023-12-28T03:39:31;102788.03;;;18.58
64296;BMP280;51082;38.236;15.432;2023-12-28T03:40:32;102783.78;;;18.57
64296;BMP280;51082;38.236;15.432;2023-12-28T03:41:35;102787.81;;;18.53
64296;BMP280;51082;38.236;15.432;2023-12-28T03:42:36;102785.38;;;18.51
64296;BMP280;51082;38.236;15.432;2023-12-28T03:43:40;102788.00;;;18.51
64296;BMP280;51082;38.236;15.432;2023-12-28T03:44:42;102784.56;;;18.51
64296;BMP280;51082;38.236;15.432;2023-12-28T03:45:44;102785.75;;;18.48
64296;BMP280;51082;38.236;15.432;2023-12-28T03:46:47;102787.78;;;18.46
64296;BMP280;51082;38.236;15.432;2023-12-28T03:47:50;102784.13;;;18.47
64296;BMP280;51082;38.236;15.432;2023-12-28T03:48:52;102785.75;;;18.48
64296;BMP280;51082;38.236;15.432;2023-12-28T03:49:54;102785.56;;;18.50
64296;BMP280;51082;38.236;15.432;2023-12-28T03:50:57;102781.28;;;18.49
64296;BMP280;51082;38.236;15.432;2023-12-28T03:52:00;102794.28;;;18.50
64296;BMP280;51082;38.236;15.432;2023-12-28T03:53:01;102794.72;;;18.54
64296;BMP280;51082;38.236;15.432;2023-12-28T03:54:04;102792.69;;;18.56
64296;BMP280;51082;38.236;15.432;2023-12-28T03:55:06;102795.53;;;18.54
64296;BMP280;51082;38.236;15.432;2023-12-28T03:56:18;102795.53;;;18.54
64296;BMP280;51082;38.236;15.432;2023-12-28T03:57:19;102797.34;;;18.54
64296;BMP280;51082;38.236;15.432;2023-12-28T03:58:22;102794.72;;;18.54
64296;BMP280;51082;38.236;15.432;2023-12-28T03:59:25;102795.91;;;18.51
64296;BMP280;51082;38.236;15.432;2023-12-28T04:00:27;102791.03;;;18.48
64296;BMP280;51082;38.236;15.432;2023-12-28T04:01:29;102792.66;;;18.49
64296;BMP280;51082;38.236;15.432;2023-12-28T04:02:31;102793.66;;;18.48
64296;BMP280;51082;38.236;15.432;2023-12-28T04:03:33;102799.56;;;18.50
64296;BMP280;51082;38.236;15.432;2023-12-28T04:04:35;102795.50;;;18.48
64296;BMP280;51082;38.236;15.432;2023-12-28T04:05:37;102793.47;;;18.50
64296;BMP280;51082;38.236;15.432;2023-12-28T04:06:39;102797.31;;;18.47
64296;BMP280;51082;38.236;15.432;2023-12-28T04:07:42;102796.94;;;18.50
64296;BMP280;51082;38.236;15.432;2023-12-28T04:08:45;102793.28;;;18.51
64296;BMP280;51082;38.236;15.432;2023-12-28T04:09:46;102797.13;;;18.49
64296;BMP280;51082;38.236;15.432;2023-12-28T04:10:49;102795.91;;;18.51
64296;BMP280;51082;38.236;15.432;2023-12-28T04:11:50;102792.03;;;18.47
64296;BMP280;51082;38.236;15.432;2023-12-28T04:12:53;102798.75;;;18.50
64296;BMP280;51082;38.236;15.432;2023-12-28T04:13:58;102793.81;;;18.47
64296;BMP280;51082;38.236;15.432;2023-12-28T04:15:02;102797.69;;;18.44
64296;BMP280;51082;38.236;15.432;2023-12-28T04:16:05;102797.50;;;18.46
64296;BMP280;51082;38.236;15.432;2023-12-28T04:17:07;102794.41;;;18.42
64296;BMP280;51082;38.236;15.432;2023-12-28T04:18:09;102791.41;;;18.45
64296;BMP280;51082;38.236;15.432;2023-12-28T04:19:11;102789.78;;;18.44
64296;BMP280;51082;38.236;15.432;2023-12-28T04:20:13;102793.81;;;18.47
64296;BMP280;51082;38.236;15.432;2023-12-28T04:21:15;102792.22;;;18.46
64296;BMP280;51082;38.236;15.432;2023-12-28T04:22:17;102788.53;;;18.40
64296;BMP280;51082;38.236;15.432;2023-12-28T04:23:19;102790.16;;;18.41
64296;BMP280;51082;38.236;15.432;2023-12-28T04:24:21;102798.47;;;18.38
64296;BMP280;51082;38.236;15.432;2023-12-28T04:25:23;102805.81;;;18.42
64296;BMP280;51082;38.236;15.432;2023-12-28T04:26:24;102802.97;;;18.44
64296;BMP280;51082;38.236;15.432;2023-12-28T04:27:27;102804.78;;;18.43
64296;BMP280;51082;38.236;15.432;2023-12-28T04:28:28;102809.88;;;18.45
64296;BMP280;51082;38.236;15.432;2023-12-28T04:29:31;102810.22;;;18.42
64296;BMP280;51082;38.236;15.432;2023-12-28T04:30:34;102805.41;;;18.46
64296;BMP280;51082;38.236;15.432;2023-12-28T04:31:39;102811.50;;;18.46
64296;BMP280;51082;38.236;15.432;2023-12-28T04:32:41;102814.78;;;18.48
64296;BMP280;51082;38.236;15.432;2023-12-28T04:33:44;102808.81;;;18.39
64296;BMP280;51082;38.236;15.432;2023-12-28T04:34:45;102818.13;;;18.42
64296;BMP280;51082;38.236;15.432;2023-12-28T04:35:48;102815.16;;;18.45
64296;BMP280;51082;38.236;15.432;2023-12-28T04:36:49;102811.69;;;18.44
64296;BMP280;51082;38.236;15.432;2023-12-28T04:37:53;102817.41;;;18.48
64296;BMP280;51082;38.236;15.432;2023-12-28T04:38:54;102814.16;;;18.46
64296;BMP280;51082;38.236;15.432;2023-12-28T04:39:57;102817.78;;;18.45
64296;BMP280;51082;38.236;15.432;2023-12-28T04:40:58;102817.56;;;18.47
64296;BMP280;51082;38.236;15.432;2023-12-28T04:42:01;102825.91;;;18.43
64296;BMP280;51082;38.236;15.432;2023-12-28T04:43:02;102827.13;;;18.48
64296;BMP280;51082;38.236;15.432;2023-12-28T04:44:04;102821.06;;;18.47
64296;BMP280;51082;38.236;15.432;2023-12-28T04:45:07;102822.44;;;18.43
64296;BMP280;51082;38.236;15.432;2023-12-28T04:46:10;102826.72;;;18.44
64296;BMP280;51082;38.236;15.432;2023-12-28T04:47:13;102821.44;;;18.44
64296;BMP280;51082;38.236;15.432;2023-12-28T04:48:15;102833.00;;;18.43
64296;BMP280;51082;38.236;15.432;2023-12-28T04:49:16;102822.06;;;18.46
64296;BMP280;51082;38.236;15.432;2023-12-28T04:50:19;102828.69;;;18.42
64296;BMP280;51082;38.236;15.432;2023-12-28T04:51:20;102826.91;;;18.42
64296;BMP280;51082;38.236;15.432;2023-12-28T04:52:23;102837.25;;;18.44
64296;BMP280;51082;38.236;15.432;2023-12-28T04:53:24;102827.53;;;18.44
64296;BMP280;51082;38.236;15.432;2023-12-28T04:54:27;102829.34;;;18.44
64296;BMP280;51082;38.236;15.432;2023-12-28T04:55:28;102834.81;;;18.42
64296;BMP280;51082;38.236;15.432;2023-12-28T04:56:31;102833.63;;;18.45
64296;BMP280;51082;38.236;15.432;2023-12-28T04:57:32;102833.63;;;18.45
64296;BMP280;51082;38.236;15.432;2023-12-28T04:58:35;102835.44;;;18.44
64296;BMP280;51082;38.236;15.432;2023-12-28T04:59:38;102833.22;;;18.48
64296;BMP280;51082;38.236;15.432;2023-12-28T05:00:40;102830.59;;;18.48
64296;BMP280;51082;38.236;15.432;2023-12-28T05:01:43;102830.59;;;18.48
64296;BMP280;51082;38.236;15.432;2023-12-28T05:02:46;102826.31;;;18.47
64296;BMP280;51082;38.236;15.432;2023-12-28T05:03:47;102822.69;;;18.48
64296;BMP280;51082;38.236;15.432;2023-12-28T05:04:49;102826.72;;;18.44
64296;BMP280;51082;38.236;15.432;2023-12-28T05:05:51;102829.50;;;18.36
64296;BMP280;51082;38.236;15.432;2023-12-28T05:06:53;102828.66;;;18.35
64296;BMP280;51082;38.236;15.432;2023-12-28T05:07:55;102830.75;;;18.40
64296;BMP280;51082;38.236;15.432;2023-12-28T05:08:56;102833.38;;;18.40
64296;BMP280;51082;38.236;15.432;2023-12-28T05:09:59;102820.78;;;18.42
64296;BMP280;51082;38.236;15.432;2023-12-28T05:11:00;102829.91;;;18.39
64296;BMP280;51082;38.236;15.432;2023-12-28T05:12:03;102828.28;;;18.38
64296;BMP280;51082;38.236;15.432;2023-12-28T05:13:05;102829.50;;;18.36
64296;BMP280;51082;38.236;15.432;2023-12-28T05:14:08;102827.47;;;18.38
64296;BMP280;51082;38.236;15.432;2023-12-28T05:15:10;102832.38;;;18.41
64296;BMP280;51082;38.236;15.432;2023-12-28T05:16:12;102831.56;;;18.40
64296;BMP280;51082;38.236;15.432;2023-12-28T05:17:15;102832.75;;;18.38
64296;BMP280;51082;38.236;15.432;2023-12-28T05:18:17;102829.09;;;18.39
64296;BMP280;51082;38.236;15.432;2023-12-28T05:19:19;102830.75;;;18.40
64296;BMP280;51082;38.236;15.432;2023-12-28T05:20:21;102831.91;;;18.37
64296;BMP280;51082;38.236;15.432;2023-12-28T05:21:23;102831.75;;;18.39
64296;BMP280;51082;38.236;15.432;2023-12-28T05:22:25;102827.03;;;18.34
64296;BMP280;51082;38.236;15.432;2023-12-28T05:23:27;102830.13;;;18.38
64296;BMP280;51082;38.236;15.432;2023-12-28T05:24:28;102834.38;;;18.39
64296;BMP280;51082;38.236;15.432;2023-12-28T05:25:31;102830.75;;;18.40
64296;BMP280;51082;38.236;15.432;2023-12-28T05:26:32;102836.81;;;18.40
64296;BMP280;51082;38.236;15.432;2023-12-28T05:27:34;102837.03;;;18.39
64296;BMP280;51082;38.236;15.432;2023-12-28T05:28:36;102835.38;;;18.38
64296;BMP280;51082;38.236;15.432;2023-12-28T05:29:38;102834.28;;;18.32
64296;BMP280;51082;38.236;15.432;2023-12-28T05:30:40;102824.97;;;18.30
64296;BMP280;51082;38.236;15.432;2023-12-28T05:31:42;102832.69;;;18.31
64296;BMP280;51082;38.236;15.432;2023-12-28T05:32:45;102827.59;;;18.30
64296;BMP280;51082;38.236;15.432;2023-12-28T05:33:48;102828.44;;;18.30
64296;BMP280;51082;38.236;15.432;2023-12-28T05:34:49;102824.97;;;18.30
64296;BMP280;51082;38.236;15.432;2023-12-28T05:35:52;102825.41;;;18.33
64296;BMP280;51082;38.236;15.432;2023-12-28T05:36:53;102819.28;;;18.33
64296;BMP280;51082;38.236;15.432;2023-12-28T05:37:56;102826.59;;;18.31
64296;BMP280;51082;38.236;15.432;2023-12-28T05:38:57;102823.34;;;18.29
64296;BMP280;51082;38.236;15.432;2023-12-28T05:40:00;102820.88;;;18.27
64296;BMP280;51082;38.236;15.432;2023-12-28T05:41:01;102823.16;;;18.30
64296;BMP280;51082;38.236;15.432;2023-12-28T05:42:04;102826.59;;;18.31
64296;BMP280;51082;38.236;15.432;2023-12-28T05:43:06;102823.50;;;18.27
64296;BMP280;51082;38.236;15.432;2023-12-28T05:44:08;102833.88;;;18.29
64296;BMP280;51082;38.236;15.432;2023-12-28T05:45:10;102825.59;;;18.32
64296;BMP280;51082;38.236;15.432;2023-12-28T05:46:13;102829.84;;;18.33
64296;BMP280;51082;38.236;15.432;2023-12-28T05:47:15;102826.13;;;18.27
64296;BMP280;51082;38.236;15.432;2023-12-28T05:48:19;102820.88;;;18.27
64296;BMP280;51082;38.236;15.432;2023-12-28T05:49:20;102818.31;;;18.34
64296;BMP280;51082;38.236;15.432;2023-12-28T05:50:22;102826.03;;;18.35
64296;BMP280;51082;38.236;15.432;2023-12-28T05:51:24;102820.94;;;18.34